WEATHER DATA

TODAY
Time Temp. Dewp. Hum. Bar.
00:05 0.4 -0.5 93 1017.1
00:15 0.4 -0.5 93 1017.2
00:24 0.4 -0.5 93 1017.1
00:34 0.3 -0.6 93 1017.3
00:45 0.2 -0.7 93 1017.2
00:55 0.1 -0.8 93 1017.3
01:05 0 -0.9 93 1017.3
01:15 0 -0.9 93 1017.5
01:25 -0.1 -1 93 1017.7
01:35 -0.2 -1.1 93 1017.7
01:45 -0.2 -1.1 93 1017.9
01:56 -0.2 -0.9 94 1018.1
02:06 -0.2 -0.9 94 1018.2
02:15 -0.1 -0.8 94 1018.3
02:26 -0.1 -0.8 94 1018.3
02:36 -0.1 -0.8 94 1018.3
02:46 0 -0.7 94 1018.4
02:56 0 -0.7 94 1018.5
03:06 0 -0.7 94 1018.5
03:16 0 -0.7 94 1018.5
03:26 0 -0.7 94 1018.5
03:36 0 -0.7 94 1018.5
03:47 0 -0.7 94 1018.4
03:57 0 -0.7 94 1018.5
04:06 0 -0.7 94 1018.6
04:17 0 -0.7 94 1018.5
04:27 0 -0.7 94 1018.7
04:37 0 -0.7 94 1018.6
04:47 0 -0.7 94 1018.7
04:57 0 -0.7 94 1018.8
05:07 0 -0.7 94 1018.8
05:17 0 -0.7 94 1018.7
05:28 0 -0.7 94 1018.8
05:38 0 -0.7 94 1018.7
05:47 0 -0.7 94 1018.8
05:57 0 -0.7 94 1019
06:08 0 -0.7 94 1018.8
06:18 0 -0.7 94 1018.9
06:28 0.1 -0.7 94 1019
06:38 0.1 -0.7 94 1019.1
06:48 0.1 -0.7 94 1019.1
06:58 0.2 -0.6 94 1019.3
07:08 0.2 -0.6 94 1019.3
07:19 0.2 -0.6 94 1019.4
07:29 0.3 -0.5 94 1019.4
07:38 0.3 -0.5 94 1019.7
07:49 0.3 -0.5 94 1019.9
07:59 0.3 -0.5 94 1019.9
08:09 0.3 -0.5 94 1019.9
08:19 0.3 -0.5 94 1020.1
08:29 0.3 -0.5 94 1020.2
08:39 0.3 -0.5 94 1020.2
08:49 0.2 -0.6 94 1020.3
08:59 0.2 -0.6 94 1020.4
09:10 0.2 -0.6 94 1020.5
09:20 0.2 -0.6 94 1020.5
09:29 0.3 -0.5 94 1020.6
09:40 0.3 -0.5 94 1020.7
09:50 0.4 -0.4 94 1020.8
10:00 0.4 -0.4 94 1020.7
10:10 0.5 -0.3 94 1020.7
10:20 0.6 -0.2 94 1020.6
10:30 0.7 -0.1 94 1020.8
10:40 0.7 -0.1 94 1020.9
10:51 0.8 0 94 1021.2
11:01 0.9 0 94 1021.1
11:10 1 0.1 94 1021.1
11:20 1.1 0.2 94 1021.1
11:31 1.2 0.3 94 1021
11:41 1.3 0.4 94 1020.7
11:51 1.3 0.4 94 1020.8
12:01 1.3 0.3 93 1020.6

DAY STATISTIC

2019-01-18
TEMPERATURE
AVERAGE
0.2
HIGH
1.3
11:41
LOW
-0.2
01:35
PRESSURE
AVERAGE
1019.2
HIGH
1021.2
10:51
LOW
1017.1
00:05
DEWPOINT
AVERAGE
-0.5
HIGH
0.4
11:41
LOW
-1.1
01:35
HUMIDITY
AVERAGE
94
HIGH
94
01:56
LOW
93
00:05
TEMPERATURE (°C)
LOW
-0.2
HIGH
1.3
AVERAGE
0.2
PRESSURE (hpa)
LOW
1017.1
HIGH
1021.2
AVERAGE
1019.2
DEVICE